Mandirituba, Brazil
Current Conditions -  °F | °C
As of 11:00 AM on Saturday 25 Oct 2014 (Local Time) from SBCT Reporting Station
Few Clouds Few Clouds  
Wind Chill: 70°   Ceiling: Unl
Heat Index: 70°   Visibility: 6mi
Dew Point: 57°   Wind: 13mph
Humidity: 64%   Direction: 320°NW
Pressure: 30.09"   Gusts: NA
Location:  25.78°S, 49.33°W
Report Text: SBCT 251300Z 32011KT 9999 FEW020 21/14 Q1019
Loading
Personal Weather Stations






























Interactive Weather Map
Tropical Storm Tracking
New forecast layout! Learn more

10-Day Weather Forecast

Advertisements
Track Severe Weather on mobile